Time;durP1;ratioP1;P1;durP2;ratioP2;P2;SDS_P1;SDS_P2;PMS_P1;PMS_P2;Temp;Humidity;BMP_temperature;BMP_pressure;BME280_temperature;BME280_humidity;BME280_pressure;Samples;Min_cycle;Max_cycle;Signal;HPM_P1;HPM_P2
2022/03/10 00:00:12;;;;;;;0.93;0.60;;;1.70;69.30;;;;;;4997105;28;20935;-82
2022/03/10 00:02:40;;;;;;;0.30;0.30;;;1.70;68.30;;;;;;4997295;28;20455;-82
2022/03/10 00:05:10;;;;;;;2.00;0.67;;;1.70;69.40;;;;;;4997444;28;20452;-82
2022/03/10 00:07:37;;;;;;;0.80;0.80;;;1.70;69.20;;;;;;4997225;28;20468;-82
2022/03/10 00:10:07;;;;;;;2.10;1.13;;;1.70;69.70;;;;;;4996869;28;20851;-82
2022/03/10 00:12:34;;;;;;;0.73;0.73;;;1.70;69.60;;;;;;4996865;28;20973;-82
2022/03/10 00:15:03;;;;;;;0.30;0.30;;;1.60;69.70;;;;;;4997144;28;20452;-82
2022/03/10 00:17:30;;;;;;;1.27;1.27;;;1.60;69.50;;;;;;4996868;28;20922;-82
2022/03/10 00:19:57;;;;;;;4.63;1.70;;;1.50;70.20;;;;;;4996899;28;20448;-82
2022/03/10 00:22:23;;;;;;;0.43;0.40;;;1.50;70.30;;;;;;4996972;28;20448;-82
2022/03/10 00:24:50;;;;;;;1.50;1.40;;;1.50;70.50;;;;;;4996986;28;20816;-82
2022/03/10 00:27:18;;;;;;;0.53;0.53;;;1.50;70.00;;;;;;4996890;28;20475;-82
2022/03/10 00:29:45;;;;;;;1.60;1.33;;;1.50;70.00;;;;;;4996852;28;20507;-82
2022/03/10 00:32:12;;;;;;;0.40;0.40;;;1.40;69.70;;;;;;4997254;28;20461;-82
2022/03/10 00:34:38;;;;;;;1.30;1.30;;;1.40;69.50;;;;;;4996756;28;20448;-82
2022/03/10 00:37:05;;;;;;;1.23;1.23;;;1.40;70.40;;;;;;4996790;28;20477;-82
2022/03/10 00:39:32;;;;;;;0.30;0.30;;;1.40;70.50;;;;;;4996505;28;20503;-82
2022/03/10 00:41:59;;;;;;;0.43;0.43;;;1.40;70.30;;;;;;4996794;28;20447;-82
2022/03/10 00:44:29;;;;;;;0.60;0.60;;;1.30;70.50;;;;;;4996925;28;20463;-81
2022/03/10 00:46:56;;;;;;;0.50;0.50;;;1.30;70.50;;;;;;4996693;28;20527;-82
2022/03/10 00:49:23;;;;;;;1.53;1.07;;;1.30;71.00;;;;;;4996105;28;20495;-82
2022/03/10 00:51:50;;;;;;;0.30;0.30;;;1.30;71.20;;;;;;4996527;28;20460;-82
2022/03/10 00:54:17;;;;;;;0.50;0.50;;;1.20;72.10;;;;;;4996593;28;20448;-82
2022/03/10 00:56:44;;;;;;;0.30;0.30;;;1.20;72.20;;;;;;4996508;28;20456;-81
2022/03/10 00:59:11;;;;;;;1.47;0.70;;;1.20;73.40;;;;;;4996117;28;20444;-82
2022/03/10 01:01:39;;;;;;;0.30;0.30;;;1.20;73.00;;;;;;4996174;28;20787;-82
2022/03/10 01:04:06;;;;;;;1.37;1.33;;;1.20;72.40;;;;;;4996452;28;20448;-82
2022/03/10 01:06:32;;;;;;;0.60;0.60;;;1.20;72.80;;;;;;4996855;28;20459;-82
2022/03/10 01:08:59;;;;;;;0.60;0.60;;;1.20;72.30;;;;;;4996312;28;20483;-82
2022/03/10 01:11:26;;;;;;;0.50;0.50;;;1.20;72.30;;;;;;4996164;28;20452;-81
2022/03/10 01:13:53;;;;;;;0.30;0.30;;;1.20;72.20;;;;;;4996320;28;20453;-82
2022/03/10 01:16:20;;;;;;;0.50;0.50;;;1.20;70.20;;;;;;4996392;28;20463;-82
2022/03/10 01:18:48;;;;;;;0.40;0.40;;;1.20;70.90;;;;;;4996270;28;20452;-82
2022/03/10 01:21:14;;;;;;;0.30;0.30;;;1.30;70.60;;;;;;4996139;28;20476;-82
2022/03/10 01:23:41;;;;;;;0.40;0.40;;;1.20;71.10;;;;;;4995846;28;20452;-82
2022/03/10 01:26:08;;;;;;;0.67;0.67;;;1.20;71.20;;;;;;4996387;28;20448;-82
2022/03/10 01:28:34;;;;;;;2.13;1.23;;;1.10;71.90;;;;;;4996099;28;20476;-82
2022/03/10 01:31:01;;;;;;;0.30;0.30;;;1.10;72.50;;;;;;4995745;28;20484;-82
2022/03/10 01:33:28;;;;;;;0.33;0.33;;;1.10;72.10;;;;;;4996437;28;20444;-82
2022/03/10 01:35:57;;;;;;;1.73;1.73;;;1.20;72.50;;;;;;4995945;28;20551;-82
2022/03/10 01:38:23;;;;;;;2.93;1.77;;;1.20;73.50;;;;;;4995573;28;20987;-82
2022/03/10 01:40:50;;;;;;;1.37;1.07;;;1.20;73.70;;;;;;4996288;28;20459;-82
2022/03/10 01:43:17;;;;;;;0.77;0.77;;;1.10;72.90;;;;;;4995988;28;20452;-82
2022/03/10 01:45:44;;;;;;;0.30;0.30;;;1.10;73.40;;;;;;4995886;28;20460;-82
2022/03/10 01:48:11;;;;;;;2.00;0.97;;;1.10;73.60;;;;;;4995121;28;20484;-82
2022/03/10 01:50:37;;;;;;;0.50;0.50;;;1.00;74.00;;;;;;4995555;28;20492;-82
2022/03/10 01:53:05;;;;;;;0.50;0.47;;;1.00;73.70;;;;;;4995775;28;20460;-82
2022/03/10 01:55:32;;;;;;;0.43;0.43;;;1.00;74.00;;;;;;4996228;28;20456;-82
2022/03/10 01:58:00;;;;;;;0.40;0.30;;;1.00;74.40;;;;;;4995715;28;20900;-82
2022/03/10 02:00:28;;;;;;;0.80;0.80;;;1.00;74.80;;;;;;4996098;28;20477;-82
2022/03/10 02:02:54;;;;;;;0.60;0.60;;;0.90;75.00;;;;;;4995746;28;20800;-82
2022/03/10 02:05:21;;;;;;;0.30;0.30;;;0.90;73.80;;;;;;4995326;28;20444;-82
2022/03/10 02:10:35;;;;;;;0.30;0.30;;;0.80;74.70;;;;;;4995438;28;20451;-82
2022/03/10 02:13:01;;;;;;;0.40;0.40;;;0.70;74.50;;;;;;4995559;28;20461;-82
2022/03/10 02:18:14;;;;;;;2.10;2.00;;;0.60;74.60;;;;;;4994890;28;20532;-82
2022/03/10 02:20:41;;;;;;;0.60;0.60;;;0.60;74.00;;;;;;4995443;28;20821;-82
2022/03/10 02:23:11;;;;;;;0.50;0.50;;;0.60;74.50;;;;;;4995391;28;20444;-82
2022/03/10 02:25:39;;;;;;;0.40;0.40;;;0.50;75.00;;;;;;4996287;28;20505;-82
2022/03/10 02:28:06;;;;;;;0.30;0.30;;;0.50;75.20;;;;;;4994965;28;20539;-82
2022/03/10 02:30:34;;;;;;;0.77;0.77;;;0.50;75.00;;;;;;4995096;28;20571;-82
2022/03/10 02:33:01;;;;;;;0.93;0.93;;;0.50;74.40;;;;;;4995033;28;20464;-82
2022/03/10 02:35:28;;;;;;;0.30;0.30;;;0.50;75.10;;;;;;4994826;28;20452;-82
2022/03/10 02:37:56;;;;;;;0.30;0.30;;;0.50;74.00;;;;;;4994680;28;20476;-82
2022/03/10 02:40:24;;;;;;;0.37;0.37;;;0.60;74.00;;;;;;4994740;28;20445;-82
2022/03/10 02:42:51;;;;;;;2.17;1.47;;;0.40;73.20;;;;;;4994326;28;20449;-81
2022/03/10 02:45:17;;;;;;;0.30;0.30;;;0.40;73.60;;;;;;4994615;28;20471;-82
2022/03/10 02:47:44;;;;;;;1.30;1.30;;;0.40;74.60;;;;;;4994357;28;20484;-82
2022/03/10 02:50:11;;;;;;;0.30;0.30;;;0.40;74.00;;;;;;4994436;28;20479;-82
2022/03/10 02:52:39;;;;;;;1.00;1.00;;;0.40;73.90;;;;;;4994421;28;20440;-82
2022/03/10 02:55:06;;;;;;;0.60;0.50;;;0.40;74.00;;;;;;4994477;28;20456;-82
2022/03/10 02:57:37;;;;;;;0.40;0.40;;;0.30;74.20;;;;;;4994601;28;20477;-82
2022/03/10 03:00:06;;;;;;;0.30;0.30;;;0.40;74.70;;;;;;4994427;28;20535;-82
2022/03/10 03:02:33;;;;;;;0.30;0.30;;;0.30;74.60;;;;;;4994146;28;20515;-82
2022/03/10 03:05:00;;;;;;;0.70;0.70;;;0.30;74.50;;;;;;4994967;28;20463;-82
2022/03/10 03:07:26;;;;;;;2.87;2.53;;;0.30;75.60;;;;;;4994399;28;20500;-82
2022/03/10 03:09:53;;;;;;;0.73;0.73;;;0.30;75.10;;;;;;4994180;28;20458;-82
2022/03/10 03:12:20;;;;;;;0.30;0.30;;;0.30;75.30;;;;;;4994717;28;20463;-82
2022/03/10 03:14:48;;;;;;;0.67;0.67;;;0.30;75.50;;;;;;4994159;28;20441;-82
2022/03/10 03:17:15;;;;;;;0.60;0.60;;;0.30;75.80;;;;;;4994557;28;20464;-82
2022/03/10 03:19:42;;;;;;;1.53;1.43;;;0.30;75.60;;;;;;4993967;28;20453;-82
2022/03/10 03:22:09;;;;;;;1.00;1.00;;;0.30;76.30;;;;;;4994361;28;20883;-82
2022/03/10 03:24:36;;;;;;;0.30;0.30;;;0.30;77.60;;;;;;4995529;28;20819;-82
2022/03/10 03:27:03;;;;;;;0.60;0.60;;;0.30;77.00;;;;;;4998588;28;20437;-82
2022/03/10 03:29:30;;;;;;;1.17;1.17;;;0.40;76.70;;;;;;4998568;28;20456;-83
2022/03/10 03:31:58;;;;;;;0.40;0.40;;;0.30;76.90;;;;;;4998555;28;20448;-82
2022/03/10 03:34:25;;;;;;;1.33;0.87;;;0.30;76.30;;;;;;4998579;28;20444;-82
2022/03/10 03:36:52;;;;;;;1.63;1.63;;;0.30;76.40;;;;;;4998261;28;20459;-83
2022/03/10 03:39:19;;;;;;;1.73;1.63;;;0.30;74.50;;;;;;4998201;28;20823;-82
2022/03/10 03:41:46;;;;;;;2.30;1.07;;;0.40;75.50;;;;;;4998379;28;20440;-82
2022/03/10 03:44:13;;;;;;;0.60;0.60;;;0.40;75.50;;;;;;4998421;28;20452;-82
2022/03/10 03:46:41;;;;;;;0.30;0.30;;;0.40;77.30;;;;;;4997941;28;20951;-82
2022/03/10 03:49:09;;;;;;;0.30;0.30;;;0.40;76.70;;;;;;4997731;28;20487;-82
2022/03/10 03:51:37;;;;;;;0.50;0.50;;;0.40;77.10;;;;;;4998483;28;20491;-82
2022/03/10 03:54:05;;;;;;;0.40;0.40;;;0.50;77.50;;;;;;4999864;28;20452;-82
2022/03/10 03:56:32;;;;;;;0.50;0.40;;;0.40;77.30;;;;;;4998387;28;20520;-82
2022/03/10 03:58:58;;;;;;;0.70;0.70;;;0.40;77.30;;;;;;4999046;28;20457;-82
2022/03/10 04:01:26;;;;;;;0.30;0.30;;;0.40;78.30;;;;;;4998776;28;20817;-82
2022/03/10 04:03:52;;;;;;;0.30;0.30;;;0.40;79.10;;;;;;4998875;28;20543;-82
2022/03/10 04:06:21;;;;;;;0.50;0.50;;;0.40;78.40;;;;;;4998687;28;20439;-82
2022/03/10 04:08:47;;;;;;;2.60;2.50;;;0.40;78.20;;;;;;4998460;28;20479;-82
2022/03/10 04:11:14;;;;;;;0.90;0.90;;;0.30;77.80;;;;;;4998785;28;20496;-82
2022/03/10 04:13:41;;;;;;;0.80;0.60;;;0.20;78.30;;;;;;4998557;28;20463;-82
2022/03/10 04:16:08;;;;;;;0.60;0.60;;;0.20;78.60;;;;;;4998333;28;20920;-82
2022/03/10 04:18:35;;;;;;;1.43;1.43;;;0.20;78.50;;;;;;4998344;28;20483;-82
2022/03/10 04:21:02;;;;;;;0.30;0.30;;;0.20;78.50;;;;;;4997974;28;20966;-82
2022/03/10 04:23:31;;;;;;;1.33;1.23;;;0.20;78.80;;;;;;4998114;28;20835;-82
2022/03/10 04:25:58;;;;;;;0.60;0.60;;;0.20;79.30;;;;;;5001060;28;20440;-82
2022/03/10 04:28:24;;;;;;;0.40;0.40;;;0.20;79.30;;;;;;5001415;28;20478;-82
2022/03/10 04:30:52;;;;;;;0.60;0.60;;;0.20;79.00;;;;;;5000853;28;20490;-82
2022/03/10 04:33:18;;;;;;;0.97;0.97;;;0.30;78.10;;;;;;5000500;28;20456;-82
2022/03/10 04:35:45;;;;;;;0.37;0.37;;;0.30;77.70;;;;;;5000054;28;20437;-82
2022/03/10 04:38:12;;;;;;;0.30;0.30;;;0.30;77.80;;;;;;5000032;28;20510;-82
2022/03/10 04:40:40;;;;;;;0.67;0.67;;;0.30;78.80;;;;;;5000227;28;20452;-82
2022/03/10 04:43:07;;;;;;;0.53;0.53;;;0.20;78.20;;;;;;4998703;28;20457;-82
2022/03/10 04:45:34;;;;;;;0.30;0.30;;;0.20;78.50;;;;;;4997683;28;20453;-82
2022/03/10 04:48:02;;;;;;;0.30;0.30;;;0.10;78.50;;;;;;4997671;28;20484;-82
2022/03/10 04:50:31;;;;;;;0.90;0.90;;;0.10;79.00;;;;;;4997732;28;20489;-81
2022/03/10 04:52:57;;;;;;;0.30;0.30;;;0.00;79.90;;;;;;4997626;28;20479;-82
2022/03/10 04:55:24;;;;;;;0.90;0.83;;;0.00;79.90;;;;;;4997519;28;20514;-82
2022/03/10 04:57:52;;;;;;;0.67;0.67;;;0.00;80.90;;;;;;4996967;28;20543;-82
2022/03/10 05:00:19;;;;;;;0.30;0.30;;;-0.10;80.50;;;;;;4996808;28;20440;-82
2022/03/10 05:02:47;;;;;;;1.43;1.33;;;-0.10;80.50;;;;;;4996843;28;20452;-82
2022/03/10 05:05:14;;;;;;;0.30;0.30;;;-0.10;80.40;;;;;;4996523;28;20445;-82
2022/03/10 05:07:42;;;;;;;0.40;0.40;;;-0.10;80.80;;;;;;4996703;28;20476;-82
2022/03/10 05:10:10;;;;;;;0.33;0.30;;;-0.10;81.10;;;;;;4996333;28;20443;-82
2022/03/10 05:12:45;;;;;;;0.30;0.30;;;-0.10;81.50;;;;;;4996435;28;20460;-81
2022/03/10 05:15:13;;;;;;;1.50;1.50;;;-0.10;80.30;;;;;;4996553;28;20438;-81
2022/03/10 05:17:40;;;;;;;0.40;0.40;;;0.00;78.50;;;;;;4996311;28;20475;-82
2022/03/10 05:20:09;;;;;;;0.30;0.30;;;0.00;79.50;;;;;;4996136;28;20452;-82
2022/03/10 05:22:43;;;;;;;0.63;0.63;;;0.00;79.10;;;;;;4996083;28;20457;-82
2022/03/10 05:25:11;;;;;;;0.80;0.73;;;0.00;79.60;;;;;;4996074;28;20456;-82
2022/03/10 05:27:38;;;;;;;0.30;0.30;;;0.00;80.40;;;;;;4995811;28;20469;-82
2022/03/10 05:30:06;;;;;;;1.70;1.07;;;-0.10;80.00;;;;;;4995617;28;20510;-82
2022/03/10 05:32:34;;;;;;;0.50;0.50;;;-0.10;81.00;;;;;;4995609;28;20452;-82
2022/03/10 05:35:01;;;;;;;0.50;0.50;;;-0.20;80.70;;;;;;4995685;28;20444;-82
2022/03/10 05:37:28;;;;;;;0.30;0.30;;;-0.20;81.10;;;;;;4995389;28;20468;-82
2022/03/10 05:39:55;;;;;;;0.40;0.40;;;-0.30;81.10;;;;;;4995394;28;20964;-82
2022/03/10 05:42:22;;;;;;;0.30;0.30;;;-0.30;80.90;;;;;;4995529;28;20531;-82
2022/03/10 05:44:49;;;;;;;0.97;0.43;;;-0.30;81.60;;;;;;4995354;28;20934;-82
2022/03/10 05:47:16;;;;;;;0.30;0.30;;;-0.30;81.70;;;;;;4994229;28;20820;-82
2022/03/10 05:49:44;;;;;;;0.30;0.30;;;-0.20;82.60;;;;;;4995499;28;20453;-82
2022/03/10 05:52:11;;;;;;;0.40;0.40;;;-0.20;82.00;;;;;;4994953;28;20485;-82
2022/03/10 05:54:37;;;;;;;2.20;2.10;;;-0.20;81.10;;;;;;4995277;28;20452;-82
2022/03/10 05:57:04;;;;;;;0.30;0.30;;;-0.10;81.00;;;;;;4995561;28;20452;-82
2022/03/10 05:59:31;;;;;;;0.30;0.30;;;-0.10;81.10;;;;;;4995135;28;20932;-82
2022/03/10 06:01:58;;;;;;;0.33;0.33;;;-0.10;81.20;;;;;;4994957;28;20440;-82
2022/03/10 06:04:25;;;;;;;1.07;1.00;;;-0.10;81.50;;;;;;4994660;28;20426;-81
2022/03/10 06:06:53;;;;;;;0.43;0.43;;;-0.10;82.60;;;;;;4994637;28;20457;-82
2022/03/10 06:09:19;;;;;;;1.03;0.93;;;0.00;83.00;;;;;;4994673;28;20435;-82
2022/03/10 06:11:46;;;;;;;1.40;1.33;;;0.00;83.20;;;;;;4994601;28;20461;-81
2022/03/10 06:14:13;;;;;;;0.30;0.30;;;0.00;82.70;;;;;;4994813;28;20955;-81
2022/03/10 06:16:40;;;;;;;0.30;0.30;;;0.00;82.20;;;;;;4994515;28;20543;-81
2022/03/10 06:19:08;;;;;;;0.73;0.73;;;0.20;81.90;;;;;;4994753;28;20553;-82
2022/03/10 06:21:35;;;;;;;0.30;0.30;;;0.80;81.20;;;;;;4994582;28;20470;-82
2022/03/10 06:24:03;;;;;;;0.30;0.30;;;1.90;78.40;;;;;;4994807;28;20463;-82
2022/03/10 06:26:30;;;;;;;0.90;0.90;;;3.10;74.80;;;;;;4994535;28;20433;-82
2022/03/10 06:28:56;;;;;;;0.47;0.47;;;4.10;71.80;;;;;;4994331;28;20463;-82
2022/03/10 06:31:24;;;;;;;1.30;1.23;;;4.50;69.10;;;;;;4995416;28;20480;-82
2022/03/10 06:33:51;;;;;;;0.40;0.33;;;4.50;68.10;;;;;;4994250;28;20959;-82
2022/03/10 06:36:18;;;;;;;1.37;1.27;;;3.90;67.30;;;;;;4994352;28;20413;-82
2022/03/10 06:38:45;;;;;;;0.30;0.30;;;3.40;68.40;;;;;;4994156;28;20472;-82
2022/03/10 06:41:13;;;;;;;0.67;0.67;;;2.80;69.60;;;;;;4994168;28;20441;-82
2022/03/10 06:43:40;;;;;;;0.83;0.83;;;2.30;70.80;;;;;;4994153;28;20861;-82
2022/03/10 06:46:07;;;;;;;0.30;0.30;;;2.00;72.00;;;;;;4994421;28;20464;-82
2022/03/10 06:48:34;;;;;;;0.40;0.40;;;1.70;73.50;;;;;;4993972;28;20487;-81
2022/03/10 06:51:01;;;;;;;0.60;0.60;;;1.50;75.00;;;;;;4994983;28;20551;-81
2022/03/10 06:53:28;;;;;;;1.90;0.50;;;1.40;76.00;;;;;;4994477;28;20417;-82
2022/03/10 06:55:55;;;;;;;0.30;0.30;;;1.30;76.50;;;;;;4994297;28;20436;-82
2022/03/10 06:58:23;;;;;;;0.40;0.40;;;1.20;77.10;;;;;;4994132;28;20535;-81
2022/03/10 07:00:50;;;;;;;0.67;0.67;;;1.20;78.70;;;;;;4994012;28;20908;-82
2022/03/10 07:03:17;;;;;;;0.60;0.60;;;1.20;79.80;;;;;;4994237;28;20437;-82
2022/03/10 07:05:44;;;;;;;0.30;0.20;;;1.20;78.10;;;;;;4993886;28;20905;-82
2022/03/10 07:08:11;;;;;;;5.00;1.13;;;1.20;77.90;;;;;;4993902;28;20588;-82
2022/03/10 07:10:38;;;;;;;1.27;0.40;;;1.20;76.90;;;;;;4994283;28;20448;-82
2022/03/10 07:13:05;;;;;;;0.70;0.70;;;1.20;77.40;;;;;;4994775;28;20532;-82
2022/03/10 07:15:33;;;;;;;0.70;0.70;;;1.20;77.40;;;;;;4993912;28;20447;-83
2022/03/10 07:18:00;;;;;;;0.40;0.40;;;1.10;78.10;;;;;;4994473;28;20464;-82
2022/03/10 07:20:27;;;;;;;0.83;0.67;;;1.20;79.70;;;;;;4994522;28;20459;-81
2022/03/10 07:22:53;;;;;;;1.17;0.90;;;1.20;79.40;;;;;;4994566;28;20444;-81
2022/03/10 07:25:21;;;;;;;0.60;0.60;;;1.20;80.20;;;;;;4994806;28;20437;-81
2022/03/10 07:27:48;;;;;;;1.37;0.57;;;1.30;80.50;;;;;;4994479;28;20519;-81
2022/03/10 07:30:15;;;;;;;0.30;0.30;;;1.30;80.10;;;;;;4994490;28;20441;-81
2022/03/10 07:32:43;;;;;;;0.90;0.87;;;1.40;79.70;;;;;;4994439;28;20492;-81
2022/03/10 07:35:10;;;;;;;0.30;0.30;;;1.40;79.00;;;;;;4994644;28;20461;-81
2022/03/10 07:37:37;;;;;;;2.00;1.90;;;1.50;78.80;;;;;;4994213;28;20457;-82
2022/03/10 07:40:04;;;;;;;0.30;0.30;;;1.50;79.00;;;;;;4994843;28;20440;-82
2022/03/10 07:42:31;;;;;;;0.30;0.30;;;1.50;78.20;;;;;;4994342;28;21027;-82
2022/03/10 07:44:58;;;;;;;0.30;0.20;;;1.60;78.40;;;;;;4994543;28;20459;-82
2022/03/10 07:47:25;;;;;;;0.70;0.70;;;1.60;77.40;;;;;;4994726;28;20491;-82
2022/03/10 07:49:53;;;;;;;0.50;0.50;;;1.60;77.40;;;;;;4994324;28;20780;-82
2022/03/10 07:52:20;;;;;;;0.93;0.93;;;1.60;77.20;;;;;;4994229;28;20539;-82
2022/03/10 07:54:47;;;;;;;0.40;0.40;;;1.70;76.60;;;;;;4994530;28;20439;-82
2022/03/10 07:57:14;;;;;;;0.50;0.50;;;1.80;75.90;;;;;;4994537;28;20487;-82
2022/03/10 07:59:40;;;;;;;0.40;0.40;;;1.90;76.00;;;;;;4994242;28;20441;-82
2022/03/10 08:02:08;;;;;;;0.40;0.40;;;2.00;76.40;;;;;;4994424;28;20948;-82
2022/03/10 08:04:34;;;;;;;0.30;0.30;;;2.10;75.70;;;;;;4993846;28;20467;-82
2022/03/10 08:07:03;;;;;;;1.27;1.17;;;2.30;75.20;;;;;;4994290;28;20456;-82
2022/03/10 08:09:29;;;;;;;0.40;0.33;;;2.50;75.40;;;;;;4994343;28;21003;-83
2022/03/10 08:11:56;;;;;;;0.30;0.30;;;2.60;75.10;;;;;;4997020;28;20476;-82
2022/03/10 08:14:23;;;;;;;0.37;0.37;;;2.70;75.10;;;;;;4999831;28;20451;-82
2022/03/10 08:16:50;;;;;;;0.93;0.93;;;2.80;75.30;;;;;;4997854;28;20500;-83
2022/03/10 08:19:17;;;;;;;0.77;0.50;;;3.00;75.00;;;;;;4997139;28;20503;-83
2022/03/10 08:21:44;;;;;;;0.50;0.50;;;3.20;75.10;;;;;;4997122;28;20506;-83
2022/03/10 08:24:12;;;;;;;0.50;0.50;;;3.30;75.00;;;;;;4997268;28;20955;-82
2022/03/10 08:26:39;;;;;;;0.50;0.50;;;3.60;74.70;;;;;;4996955;28;20457;-82
2022/03/10 08:29:06;;;;;;;1.67;1.60;;;3.90;73.80;;;;;;4996798;28;20463;-82
2022/03/10 08:31:33;;;;;;;0.60;0.57;;;4.00;73.30;;;;;;4997027;28;20640;-83
2022/03/10 08:34:00;;;;;;;0.57;0.57;;;4.30;72.80;;;;;;4996770;28;20444;-82
2022/03/10 08:36:27;;;;;;;0.30;0.30;;;4.60;72.60;;;;;;4997321;28;20989;-84
2022/03/10 08:38:53;;;;;;;0.50;0.50;;;4.90;70.80;;;;;;4997236;28;20487;-84
2022/03/10 08:41:21;;;;;;;0.40;0.30;;;5.10;70.70;;;;;;4997379;28;20436;-85
2022/03/10 08:43:48;;;;;;;0.50;0.30;;;5.60;68.90;;;;;;4996955;28;20436;-86
2022/03/10 08:46:15;;;;;;;0.37;0.37;;;6.10;65.90;;;;;;4997398;28;20448;-84
2022/03/10 08:48:44;;;;;;;0.50;0.47;;;6.60;64.20;;;;;;4997208;28;20503;-85
2022/03/10 08:51:11;;;;;;;0.60;0.60;;;7.20;62.60;;;;;;4996932;28;20466;-84
2022/03/10 08:53:38;;;;;;;0.40;0.30;;;7.60;61.90;;;;;;4997250;28;20792;-84
2022/03/10 08:56:06;;;;;;;0.80;0.50;;;7.90;60.70;;;;;;4996542;28;20524;-84
2022/03/10 08:58:34;;;;;;;0.40;0.40;;;8.30;59.60;;;;;;4996489;28;20492;-84
2022/03/10 09:01:02;;;;;;;0.50;0.50;;;8.50;58.60;;;;;;4996111;28;20464;-84
2022/03/10 09:03:28;;;;;;;1.73;0.70;;;8.80;58.30;;;;;;4996420;28;20448;-85
2022/03/10 09:05:55;;;;;;;0.60;0.47;;;9.20;58.60;;;;;;4996635;28;20437;-85
2022/03/10 09:08:22;;;;;;;0.37;0.33;;;9.50;56.70;;;;;;4997071;28;20483;-84
2022/03/10 09:10:50;;;;;;;7.90;0.53;;;10.20;54.20;;;;;;4996485;28;20454;-83
2022/03/10 09:13:16;;;;;;;1.80;1.40;;;11.20;52.60;;;;;;4995730;28;21006;-84
2022/03/10 09:15:46;;;;;;;1.43;0.60;;;12.30;50.50;;;;;;4996344;28;20807;-84
2022/03/10 09:18:14;;;;;;;0.30;0.30;;;13.30;49.20;;;;;;4996008;28;20476;-84
2022/03/10 09:20:40;;;;;;;0.40;0.40;;;14.20;47.90;;;;;;4995985;28;20908;-84
2022/03/10 09:23:07;;;;;;;2.10;0.50;;;15.00;45.60;;;;;;4995947;28;20758;-84
2022/03/10 09:25:35;;;;;;;2.17;0.80;;;16.00;43.90;;;;;;4995850;28;20445;-84
2022/03/10 09:28:01;;;;;;;0.57;0.57;;;16.60;42.00;;;;;;4995832;28;20468;-84
2022/03/10 09:30:28;;;;;;;1.27;0.70;;;17.60;40.70;;;;;;4995559;28;20437;-84
2022/03/10 09:32:57;;;;;;;1.93;1.37;;;18.20;39.50;;;;;;4995456;28;20464;-84
2022/03/10 09:35:25;;;;;;;1.90;0.70;;;19.00;37.80;;;;;;4995488;28;20425;-84
2022/03/10 09:37:52;;;;;;;3.93;1.60;;;19.40;36.90;;;;;;4995892;28;20472;-84
2022/03/10 09:40:20;;;;;;;1.50;1.30;;;19.40;36.10;;;;;;4995995;28;20441;-84
2022/03/10 09:42:49;;;;;;;1.10;0.80;;;19.30;35.70;;;;;;4995457;28;20416;-84
2022/03/10 09:45:17;;;;;;;0.93;0.93;;;19.40;36.20;;;;;;4995593;28;20791;-83
2022/03/10 09:47:45;;;;;;;2.00;0.77;;;20.10;35.90;;;;;;4995335;28;20927;-84
2022/03/10 09:50:15;;;;;;;1.00;0.90;;;20.40;34.50;;;;;;4995457;28;20452;-84
2022/03/10 09:52:43;;;;;;;1.87;0.90;;;20.20;35.10;;;;;;4995701;28;20499;-84
2022/03/10 09:55:11;;;;;;;2.43;0.83;;;20.20;34.20;;;;;;4995623;28;20444;-84
2022/03/10 09:57:39;;;;;;;0.60;0.60;;;20.20;34.50;;;;;;4996260;28;20530;-84
2022/03/10 10:00:08;;;;;;;1.60;0.97;;;20.00;34.40;;;;;;4994964;28;20463;-84
2022/03/10 10:02:36;;;;;;;2.50;1.70;;;20.20;35.00;;;;;;4995201;28;20452;-84
2022/03/10 10:05:03;;;;;;;0.60;0.60;;;21.00;33.50;;;;;;4995213;28;20460;-83
2022/03/10 10:07:31;;;;;;;2.73;1.17;;;21.20;33.50;;;;;;4995214;28;20460;-85
2022/03/10 10:09:58;;;;;;;8.93;1.20;;;20.80;32.60;;;;;;4995579;28;20455;-84
2022/03/10 10:12:27;;;;;;;1.63;0.80;;;20.70;33.40;;;;;;4995968;28;20476;-85
2022/03/10 10:14:54;;;;;;;1.37;1.23;;;20.40;33.20;;;;;;4995690;28;20436;-85
2022/03/10 10:17:29;;;;;;;3.33;1.93;;;20.60;34.00;;;;;;4995492;28;20474;-84
2022/03/10 10:19:58;;;;;;;0.97;0.70;;;20.20;33.30;;;;;;4994752;28;20527;-85
2022/03/10 10:22:25;;;;;;;1.13;0.67;;;20.50;33.10;;;;;;4995227;28;20491;-85
2022/03/10 10:24:57;;;;;;;1.77;0.60;;;20.20;33.40;;;;;;4995541;28;20413;-85
2022/03/10 10:27:26;;;;;;;1.00;0.70;;;20.00;32.80;;;;;;4994528;28;20987;-84
2022/03/10 10:29:54;;;;;;;1.00;0.63;;;19.60;33.30;;;;;;4995634;28;20480;-85
2022/03/10 10:32:27;;;;;;;1.63;1.53;;;19.40;33.20;;;;;;4995561;28;20456;-85
2022/03/10 10:35:01;;;;;;;1.10;0.60;;;19.50;33.10;;;;;;4995093;28;20919;-85
2022/03/10 10:37:29;;;;;;;1.13;0.67;;;20.00;32.40;;;;;;4995069;28;20472;-85
2022/03/10 10:39:58;;;;;;;1.33;0.80;;;21.00;32.70;;;;;;4995291;28;20829;-89
2022/03/10 10:42:30;;;;;;;2.50;1.60;;;22.10;31.20;;;;;;4995722;28;20838;-87
2022/03/10 10:44:58;;;;;;;2.07;0.97;;;23.20;30.90;;;;;;4994822;28;20456;-84
2022/03/10 10:47:26;;;;;;;1.00;1.00;;;23.20;29.90;;;;;;4994237;28;20515;-82
2022/03/10 10:50:00;;;;;;;1.40;0.53;;;22.70;29.80;;;;;;4994358;28;20431;-82
2022/03/10 10:52:37;;;;;;;0.82;0.82;;;23.20;30.10;;;;;;4994187;28;20575;-82
2022/03/10 10:55:07;;;;;;;1.25;0.95;;;24.30;29.90;;;;;;4994333;28;20200;-82
2022/03/10 10:57:35;;;;;;;1.15;1.05;;;25.30;29.30;;;;;;4994247;28;20239;-82
2022/03/10 11:00:12;;;;;;;0.85;0.80;;;25.30;28.00;;;;;;4994186;28;20279;-82
2022/03/10 11:02:44;;;;;;;1.58;0.82;;;23.60;28.70;;;;;;4994013;28;20193;-82
2022/03/10 11:05:14;;;;;;;1.67;0.88;;;23.60;29.00;;;;;;4994278;28;20628;-82
2022/03/10 11:07:42;;;;;;;1.05;0.68;;;23.70;28.90;;;;;;4994161;28;20229;-81
2022/03/10 11:10:11;;;;;;;1.20;0.90;;;23.20;30.00;;;;;;4993984;28;20208;-81
2022/03/10 11:12:41;;;;;;;2.72;1.35;;;22.70;30.00;;;;;;4994004;28;20232;-81
2022/03/10 11:15:10;;;;;;;0.70;0.70;;;21.60;30.00;;;;;;4994044;28;20235;-81
2022/03/10 11:17:38;;;;;;;0.70;0.70;;;19.70;31.50;;;;;;4993924;28;20233;-81
2022/03/10 11:20:10;;;;;;;0.97;0.97;;;18.60;33.00;;;;;;4994035;28;20460;-81
2022/03/10 11:22:50;;;;;;;0.50;0.47;;;17.60;33.40;;;;;;4994183;28;20793;-81
2022/03/10 11:25:31;;;;;;;0.97;0.87;;;16.90;33.90;;;;;;4993868;28;20436;-81
2022/03/10 11:28:00;;;;;;;2.70;0.80;;;16.20;34.70;;;;;;4993493;28;20472;-81
2022/03/10 11:30:28;;;;;;;1.10;0.50;;;15.80;35.40;;;;;;4994204;28;20448;-82
2022/03/10 11:33:03;;;;;;;1.23;0.60;;;15.60;36.10;;;;;;4993878;28;20492;-81
2022/03/10 11:35:32;;;;;;;0.83;0.70;;;15.30;35.70;;;;;;4993526;28;20444;-81
2022/03/10 11:37:59;;;;;;;0.83;0.83;;;15.10;35.90;;;;;;4993444;28;20476;-81
2022/03/10 11:40:52;;;;;;;0.50;0.50;;;15.00;36.50;;;;;;4993935;28;20453;-82
2022/03/10 11:43:31;;;;;;;1.83;0.50;;;14.70;35.60;;;;;;4993530;28;20425;-82
2022/03/10 11:46:19;;;;;;;1.13;0.70;;;14.50;36.40;;;;;;4995580;28;20417;-82
2022/03/10 11:49:01;;;;;;;0.43;0.40;;;14.40;36.30;;;;;;4991363;28;20999;-82
2022/03/10 11:51:52;;;;;;;1.30;0.87;;;14.20;36.30;;;;;;4997829;28;20428;-82
2022/03/10 11:54:24;;;;;;;0.40;0.40;;;14.00;37.10;;;;;;4997482;28;20473;-82
2022/03/10 11:57:04;;;;;;;0.50;0.50;;;13.90;37.20;;;;;;4997677;28;20433;-82
2022/03/10 11:59:47;;;;;;;0.43;0.43;;;13.90;37.10;;;;;;4997614;28;20519;-81
2022/03/10 12:02:32;;;;;;;0.77;0.50;;;13.80;36.80;;;;;;4997512;28;20459;-83
2022/03/10 12:04:59;;;;;;;0.90;0.90;;;13.80;37.20;;;;;;4997046;28;20981;-83
2022/03/10 12:07:29;;;;;;;0.80;0.50;;;13.90;36.50;;;;;;4997249;28;20483;-83
2022/03/10 12:10:08;;;;;;;0.40;0.40;;;13.90;36.00;;;;;;4997097;28;20428;-84
2022/03/10 12:12:42;;;;;;;0.40;0.40;;;13.90;36.00;;;;;;4998932;28;20499;-93
2022/03/10 12:15:49;;;;;;;2.40;0.60;;;13.90;36.30;;;;;;5000270;28;20807;-84
2022/03/10 12:18:32;;;;;;;0.40;0.40;;;13.70;36.40;;;;;;4997131;28;20827;-83
2022/03/10 12:21:00;;;;;;;0.60;0.33;;;13.70;36.20;;;;;;4995338;28;20452;-82
2022/03/10 12:23:28;;;;;;;0.80;0.80;;;13.70;36.30;;;;;;4997134;28;20420;-83
2022/03/10 12:25:59;;;;;;;0.40;0.40;;;13.40;35.90;;;;;;4996830;28;20444;-83
2022/03/10 12:28:31;;;;;;;0.40;0.40;;;13.40;36.60;;;;;;4996920;28;20897;-83
2022/03/10 12:31:04;;;;;;;0.40;0.37;;;13.30;36.00;;;;;;4997150;28;20433;-83
2022/03/10 12:33:31;;;;;;;0.40;0.40;;;13.30;35.60;;;;;;4997440;28;20523;-83
2022/03/10 12:36:00;;;;;;;0.37;0.33;;;13.10;35.20;;;;;;4996837;28;20487;-83
2022/03/10 12:38:37;;;;;;;2.60;0.90;;;13.00;35.30;;;;;;4996529;28;20459;-82
2022/03/10 12:41:04;;;;;;;0.40;0.30;;;13.00;35.40;;;;;;4996396;28;20931;-82
2022/03/10 12:43:33;;;;;;;0.40;0.33;;;13.00;36.70;;;;;;4996688;28;20429;-82
2022/03/10 12:46:00;;;;;;;0.40;0.40;;;12.90;37.00;;;;;;4997273;28;20444;-84
2022/03/10 12:48:35;;;;;;;0.40;0.30;;;12.90;37.30;;;;;;4996596;28;20564;-84
2022/03/10 12:51:02;;;;;;;0.40;0.30;;;12.80;35.80;;;;;;4997169;28;20439;-84
2022/03/10 12:53:32;;;;;;;0.90;0.40;;;12.70;35.50;;;;;;4996196;28;20972;-84
2022/03/10 12:55:59;;;;;;;1.33;0.40;;;12.70;36.30;;;;;;4996029;28;20445;-84
2022/03/10 12:58:32;;;;;;;7.00;1.37;;;12.80;36.60;;;;;;4996371;28;20475;-84
2022/03/10 13:01:06;;;;;;;0.40;0.40;;;12.70;36.60;;;;;;4996390;28;20453;-84
2022/03/10 13:03:37;;;;;;;0.97;0.50;;;12.60;36.00;;;;;;4997018;28;20475;-82